Time;durP1;ratioP1;P1;durP2;ratioP2;P2;SDS_P1;SDS_P2;PMS_P1;PMS_P2;Temp;Humidity;BMP_temperature;BMP_pressure;BME280_temperature;BME280_humidity;BME280_pressure;Samples;Min_cycle;Max_cycle;Signal;HPM_P1;HPM_P2
2022/02/25 00:02:23;;;;;;;10.70;6.75;;;7.80;56.70;;;;;;5053339;28;20453;-70
2022/02/25 00:04:49;;;;;;;11.85;6.40;;;7.80;56.80;;;;;;5053570;28;20108;-71
2022/02/25 00:07:14;;;;;;;12.75;7.00;;;7.70;56.90;;;;;;5053326;28;20383;-70
2022/02/25 00:09:40;;;;;;;10.45;5.88;;;7.70;57.00;;;;;;5053264;28;20029;-71
2022/02/25 00:12:06;;;;;;;12.63;5.63;;;7.70;57.00;;;;;;5051937;28;20029;-71
2022/02/25 00:14:32;;;;;;;14.77;6.20;;;7.70;57.20;;;;;;5053163;28;20064;-71
2022/02/25 00:16:57;;;;;;;17.42;6.00;;;7.70;57.40;;;;;;5051776;28;20394;-71
2022/02/25 00:19:23;;;;;;;11.63;5.85;;;7.70;57.40;;;;;;5053066;28;20032;-71
2022/02/25 00:21:50;;;;;;;9.25;5.35;;;7.70;57.50;;;;;;5052995;28;20470;-69
2022/02/25 00:24:16;;;;;;;10.18;5.70;;;7.70;57.40;;;;;;5052959;28;20042;-69
2022/02/25 00:26:41;;;;;;;12.32;6.28;;;7.70;57.40;;;;;;5052956;28;20021;-69
2022/02/25 00:29:08;;;;;;;11.60;6.15;;;7.70;57.30;;;;;;5051623;28;20108;-71
2022/02/25 00:31:33;;;;;;;11.10;5.28;;;7.70;57.40;;;;;;5051523;28;20025;-72
2022/02/25 00:33:59;;;;;;;9.27;5.50;;;7.70;57.30;;;;;;5052755;28;20466;-70
2022/02/25 00:36:26;;;;;;;8.50;5.47;;;7.70;57.40;;;;;;5052591;28;20021;-72
2022/02/25 00:38:52;;;;;;;17.65;7.10;;;7.60;57.30;;;;;;5052695;28;20021;-72
2022/02/25 00:41:18;;;;;;;13.10;5.32;;;7.60;57.60;;;;;;5052688;28;20056;-70
2022/02/25 00:43:44;;;;;;;9.60;4.90;;;7.60;57.70;;;;;;5052651;28;20055;-72
2022/02/25 00:46:10;;;;;;;13.02;5.60;;;7.50;57.80;;;;;;5052627;28;20486;-71
2022/02/25 00:48:36;;;;;;;21.70;4.97;;;7.50;58.10;;;;;;5052588;28;20470;-71
2022/02/25 00:51:02;;;;;;;10.45;4.78;;;7.50;58.10;;;;;;5052731;28;20048;-72
2022/02/25 00:53:28;;;;;;;7.50;4.72;;;7.50;58.20;;;;;;5052393;28;20104;-71
2022/02/25 00:55:54;;;;;;;8.20;4.60;;;7.60;58.40;;;;;;5052558;28;20124;-70
2022/02/25 00:58:21;;;;;;;10.57;5.00;;;7.60;58.70;;;;;;5052236;28;20044;-72
2022/02/25 01:00:47;;;;;;;7.80;4.60;;;7.70;58.80;;;;;;5052732;28;20028;-70
2022/02/25 01:03:13;;;;;;;14.57;5.63;;;7.70;58.60;;;;;;5052488;28;20021;-73
2022/02/25 01:05:39;;;;;;;9.32;5.07;;;7.80;58.60;;;;;;5052455;28;20469;-72
2022/02/25 01:08:08;;;;;;;12.27;5.20;;;7.80;58.30;;;;;;5052403;28;20036;-70
2022/02/25 01:10:37;;;;;;;8.43;4.32;;;7.80;58.20;;;;;;5052437;28;20028;-69
2022/02/25 01:13:04;;;;;;;8.98;5.00;;;7.80;58.30;;;;;;5052393;28;20029;-70
2022/02/25 01:15:30;;;;;;;7.15;4.40;;;7.80;58.20;;;;;;5051165;28;20048;-71
2022/02/25 01:17:56;;;;;;;8.85;5.22;;;7.80;58.20;;;;;;5052258;28;20104;-71
2022/02/25 01:20:22;;;;;;;7.30;4.60;;;7.90;58.30;;;;;;5051106;28;20487;-69
2022/02/25 01:22:48;;;;;;;7.65;4.60;;;7.90;58.50;;;;;;5051123;28;20025;-70
2022/02/25 01:25:15;;;;;;;17.00;4.95;;;7.90;58.70;;;;;;5051091;28;20371;-71
2022/02/25 01:27:41;;;;;;;11.18;4.00;;;8.00;59.10;;;;;;5052270;28;20025;-70
2022/02/25 01:30:09;;;;;;;11.18;3.78;;;8.00;59.30;;;;;;5052223;28;20029;-70
2022/02/25 01:32:35;;;;;;;7.88;2.95;;;8.00;59.30;;;;;;5052164;28;20025;-71
2022/02/25 01:35:01;;;;;;;7.22;3.17;;;8.10;59.10;;;;;;5052064;28;20032;-72
2022/02/25 01:37:27;;;;;;;9.70;3.30;;;8.20;59.20;;;;;;5052071;28;20032;-73
2022/02/25 01:39:54;;;;;;;7.18;3.00;;;8.30;59.20;;;;;;5052100;28;20021;-69
2022/02/25 01:42:20;;;;;;;8.32;2.55;;;8.40;59.10;;;;;;5052085;28;20087;-70
2022/02/25 01:44:46;;;;;;;4.78;2.60;;;8.50;58.90;;;;;;5052057;28;20079;-69
2022/02/25 01:47:13;;;;;;;9.75;3.17;;;8.60;58.80;;;;;;5052050;28;20091;-70
2022/02/25 01:49:40;;;;;;;5.65;2.05;;;8.70;58.60;;;;;;5052138;28;20029;-69
2022/02/25 01:52:12;;;;;;;3.28;1.73;;;8.80;58.40;;;;;;5052061;28;20048;-70
2022/02/25 01:54:40;;;;;;;3.78;1.77;;;8.90;58.10;;;;;;5052084;28;20043;-70
2022/02/25 01:57:11;;;;;;;6.05;1.65;;;9.00;57.90;;;;;;5051664;28;20037;-70
2022/02/25 01:59:37;;;;;;;5.63;2.25;;;9.10;57.70;;;;;;5051933;28;20021;-69
2022/02/25 02:02:04;;;;;;;4.93;1.67;;;9.20;57.40;;;;;;5051812;28;20009;-69
2022/02/25 02:04:31;;;;;;;3.67;1.70;;;9.30;57.20;;;;;;5052672;28;20158;-69
2022/02/25 02:06:57;;;;;;;3.28;1.38;;;9.40;56.90;;;;;;5054160;28;20048;-71
2022/02/25 02:09:23;;;;;;;2.53;1.38;;;9.50;56.70;;;;;;5055333;28;20029;-68
2022/02/25 02:11:51;;;;;;;4.90;1.20;;;9.60;56.40;;;;;;5055280;28;20122;-71
2022/02/25 02:14:20;;;;;;;2.17;1.00;;;9.60;56.20;;;;;;5055321;28;20029;-69
2022/02/25 02:16:47;;;;;;;3.33;1.02;;;9.70;56.10;;;;;;5055270;28;20075;-70
2022/02/25 02:19:15;;;;;;;3.38;0.88;;;9.80;55.80;;;;;;5055111;28;20050;-72
2022/02/25 02:21:46;;;;;;;3.53;1.05;;;9.90;55.70;;;;;;5055080;28;20053;-70
2022/02/25 02:24:13;;;;;;;1.33;0.60;;;9.90;55.50;;;;;;5055343;28;20047;-70
2022/02/25 02:26:39;;;;;;;1.52;0.63;;;9.90;55.50;;;;;;5055073;28;20417;-72
2022/02/25 02:29:06;;;;;;;1.00;0.60;;;10.00;55.50;;;;;;5054985;28;20463;-72
2022/02/25 02:31:33;;;;;;;2.30;0.50;;;10.10;55.60;;;;;;5054956;28;20082;-72
2022/02/25 02:33:59;;;;;;;1.67;0.50;;;10.10;55.40;;;;;;5054766;28;20088;-70
2022/02/25 02:36:25;;;;;;;0.70;0.60;;;10.20;55.20;;;;;;5054915;28;20029;-70
2022/02/25 02:38:51;;;;;;;0.43;0.40;;;10.10;54.70;;;;;;5054905;28;20029;-70
2022/02/25 02:41:17;;;;;;;0.82;0.47;;;10.10;54.60;;;;;;5054960;28;20020;-70
2022/02/25 02:43:43;;;;;;;0.30;0.17;;;10.10;54.20;;;;;;5054889;28;20721;-70
2022/02/25 02:46:09;;;;;;;1.98;0.30;;;10.10;54.30;;;;;;5054828;28;20035;-70
2022/02/25 02:48:35;;;;;;;0.63;0.40;;;10.10;54.00;;;;;;5054812;28;20036;-71
2022/02/25 02:51:01;;;;;;;2.10;0.40;;;10.00;54.00;;;;;;5054730;28;20017;-69
2022/02/25 02:53:27;;;;;;;0.40;0.30;;;10.00;53.90;;;;;;5054776;28;20025;-70
2022/02/25 02:55:53;;;;;;;0.75;0.30;;;10.00;53.90;;;;;;5053388;28;20021;-68
2022/02/25 02:58:19;;;;;;;0.10;0.10;;;10.00;53.80;;;;;;5054404;28;20045;-70
2022/02/25 03:00:47;;;;;;;0.93;0.20;;;10.00;53.70;;;;;;5054562;28;20522;-72
2022/02/25 03:03:13;;;;;;;1.23;0.32;;;10.00;53.60;;;;;;5054381;28;20029;-70
2022/02/25 03:05:42;;;;;;;0.98;0.30;;;10.00;53.30;;;;;;5054495;28;20024;-70
2022/02/25 03:08:09;;;;;;;1.20;0.40;;;10.00;53.30;;;;;;5054473;28;20429;-70
2022/02/25 03:10:36;;;;;;;0.68;0.40;;;10.00;52.90;;;;;;5054428;28;20078;-69
2022/02/25 03:13:03;;;;;;;0.55;0.38;;;10.00;52.60;;;;;;5054399;28;20025;-70
2022/02/25 03:15:29;;;;;;;1.05;0.30;;;9.90;52.30;;;;;;5054268;28;20488;-71
2022/02/25 03:17:55;;;;;;;1.58;0.30;;;9.90;52.40;;;;;;5054135;28;20478;-70
2022/02/25 03:20:24;;;;;;;0.52;0.25;;;9.90;52.60;;;;;;5055602;28;20423;-72
2022/02/25 03:22:51;;;;;;;0.20;0.20;;;9.80;52.50;;;;;;5055965;28;20016;-68
2022/02/25 03:25:19;;;;;;;0.65;0.20;;;9.80;52.40;;;;;;5055805;28;20024;-72
2022/02/25 03:27:45;;;;;;;0.32;0.20;;;9.70;52.20;;;;;;5055676;28;20536;-71
2022/02/25 03:30:11;;;;;;;1.00;0.20;;;9.70;52.30;;;;;;5055120;28;20033;-72
2022/02/25 03:32:38;;;;;;;0.45;0.20;;;9.60;52.10;;;;;;5053841;28;20017;-71
2022/02/25 03:35:04;;;;;;;0.95;0.47;;;9.50;51.80;;;;;;5053936;28;20548;-68
2022/02/25 03:37:30;;;;;;;0.73;0.38;;;9.50;51.90;;;;;;5053774;28;20036;-70
2022/02/25 03:39:57;;;;;;;0.68;0.40;;;9.40;52.10;;;;;;5053791;28;20025;-70
2022/02/25 03:42:23;;;;;;;1.20;0.30;;;9.30;52.00;;;;;;5053736;28;20021;-69
2022/02/25 03:44:50;;;;;;;0.70;0.30;;;9.30;52.10;;;;;;5053715;28;20078;-72
2022/02/25 03:47:16;;;;;;;0.82;0.35;;;9.10;52.00;;;;;;5053652;28;20486;-72
2022/02/25 03:49:42;;;;;;;0.40;0.20;;;9.10;52.00;;;;;;5053675;28;20028;-69
2022/02/25 03:52:08;;;;;;;1.65;0.32;;;9.00;51.90;;;;;;5053641;28;20029;-70
2022/02/25 03:54:34;;;;;;;1.13;0.30;;;9.00;52.20;;;;;;5053604;28;20600;-71
2022/02/25 03:57:00;;;;;;;0.40;0.20;;;9.00;52.60;;;;;;5053259;28;20397;-68
2022/02/25 03:59:26;;;;;;;1.65;0.50;;;9.00;53.00;;;;;;5053331;28;20533;-71
2022/02/25 04:01:52;;;;;;;3.20;0.35;;;9.00;53.20;;;;;;5053357;28;20031;-72
2022/02/25 04:04:25;;;;;;;3.33;0.22;;;9.00;53.30;;;;;;5053360;28;20146;-72
2022/02/25 04:06:52;;;;;;;0.52;0.20;;;9.00;53.80;;;;;;5053376;28;20019;-70
2022/02/25 04:09:18;;;;;;;1.20;0.47;;;8.90;54.00;;;;;;5053304;28;20498;-69
2022/02/25 04:11:45;;;;;;;0.47;0.20;;;8.90;54.40;;;;;;5053303;28;20017;-70
2022/02/25 04:14:11;;;;;;;0.68;0.30;;;8.80;54.60;;;;;;5053241;28;20025;-70
2022/02/25 04:16:37;;;;;;;0.70;0.30;;;8.80;54.70;;;;;;5053200;28;20013;-71
2022/02/25 04:19:04;;;;;;;0.57;0.25;;;8.80;54.80;;;;;;5053161;28;20029;-70
2022/02/25 04:21:31;;;;;;;2.33;0.40;;;8.80;55.00;;;;;;5053226;28;20025;-72
2022/02/25 04:23:56;;;;;;;2.15;0.38;;;8.80;55.20;;;;;;5053057;28;20100;-72
2022/02/25 04:26:22;;;;;;;0.90;0.38;;;8.80;55.30;;;;;;5053038;28;20059;-71
2022/02/25 04:28:48;;;;;;;0.95;0.38;;;8.80;55.40;;;;;;5052499;28;20046;-69
2022/02/25 04:31:14;;;;;;;0.65;0.20;;;8.80;55.40;;;;;;5052782;28;20052;-69
2022/02/25 04:33:40;;;;;;;0.35;0.20;;;8.70;55.50;;;;;;5052936;28;20033;-69
2022/02/25 04:36:06;;;;;;;1.33;0.40;;;8.70;55.50;;;;;;5052833;28;20053;-69
2022/02/25 04:38:32;;;;;;;0.32;0.30;;;8.70;55.50;;;;;;5052765;28;20569;-71
2022/02/25 04:41:01;;;;;;;1.77;0.57;;;8.70;55.60;;;;;;5052736;28;20056;-69
2022/02/25 04:43:28;;;;;;;0.93;0.55;;;8.70;55.70;;;;;;5052704;28;20021;-68
2022/02/25 04:45:55;;;;;;;2.75;0.60;;;8.70;55.70;;;;;;5052657;28;20025;-69
2022/02/25 04:48:21;;;;;;;1.25;0.35;;;8.70;55.60;;;;;;5052675;28;20096;-68
2022/02/25 04:50:47;;;;;;;1.17;0.40;;;8.70;55.70;;;;;;5052668;28;20021;-72
2022/02/25 04:53:13;;;;;;;1.77;0.50;;;8.70;55.60;;;;;;5052917;28;20029;-71
2022/02/25 04:55:39;;;;;;;1.70;0.50;;;8.60;55.50;;;;;;5051309;28;20117;-70
2022/02/25 04:58:05;;;;;;;0.98;0.40;;;8.60;55.50;;;;;;5052261;28;20048;-69
2022/02/25 05:00:30;;;;;;;2.05;0.60;;;8.60;55.50;;;;;;5052561;28;20031;-71
2022/02/25 05:02:56;;;;;;;1.70;0.63;;;8.60;55.40;;;;;;5052570;28;20087;-71
2022/02/25 05:05:22;;;;;;;1.25;0.40;;;8.60;55.40;;;;;;5052328;28;20074;-70
2022/02/25 05:07:48;;;;;;;4.45;0.50;;;8.60;55.40;;;;;;5052397;28;20108;-68
2022/02/25 05:10:14;;;;;;;0.93;0.20;;;8.60;55.30;;;;;;5052383;28;20446;-71
2022/02/25 05:12:40;;;;;;;0.80;0.32;;;8.60;55.30;;;;;;5052283;28;20029;-72
2022/02/25 05:20:37;;;;;;;2.20;0.40;;;8.70;54.90;;;;;;5052382;28;20071;-69
2022/02/25 05:23:03;;;;;;;2.45;0.40;;;8.70;54.80;;;;;;5052246;28;20013;-72
2022/02/25 05:25:31;;;;;;;3.15;0.60;;;8.60;54.70;;;;;;5052282;28;20048;-69
2022/02/25 05:27:57;;;;;;;1.13;0.50;;;8.70;54.80;;;;;;5052121;28;20017;-71
2022/02/25 05:30:24;;;;;;;0.90;0.40;;;8.70;54.60;;;;;;5052286;28;20382;-68
2022/02/25 05:32:50;;;;;;;5.07;0.73;;;8.70;54.60;;;;;;5052214;28;20067;-71
2022/02/25 05:35:17;;;;;;;3.95;0.52;;;8.70;54.60;;;;;;5052189;28;20036;-69
2022/02/25 05:37:44;;;;;;;2.45;0.60;;;8.70;54.50;;;;;;5052098;28;20032;-71
2022/02/25 05:40:13;;;;;;;0.93;0.50;;;8.70;54.40;;;;;;5054278;28;20096;-71
2022/02/25 05:42:39;;;;;;;1.08;0.50;;;8.60;54.90;;;;;;5056020;28;20017;-70
2022/02/25 05:45:07;;;;;;;0.70;0.40;;;8.70;54.40;;;;;;5055916;28;20040;-70
2022/02/25 05:47:34;;;;;;;2.33;0.70;;;8.70;54.50;;;;;;5055822;28;20024;-71
2022/02/25 05:50:00;;;;;;;2.38;0.50;;;8.70;54.30;;;;;;5055932;28;20505;-71
2022/02/25 05:52:26;;;;;;;2.25;0.47;;;8.70;54.20;;;;;;5054606;28;20021;-71
2022/02/25 05:54:52;;;;;;;3.60;0.60;;;8.70;54.20;;;;;;5055792;28;20488;-71
2022/02/25 05:57:18;;;;;;;2.65;0.45;;;8.70;54.20;;;;;;5055446;28;20049;-72
2022/02/25 05:59:44;;;;;;;0.63;0.52;;;8.70;54.10;;;;;;5055657;28;20024;-69
2022/02/25 06:02:11;;;;;;;1.50;0.50;;;8.70;54.00;;;;;;5055698;28;20029;-69
2022/02/25 06:04:37;;;;;;;0.55;0.43;;;8.70;54.00;;;;;;5055582;28;20401;-68
2022/02/25 06:07:03;;;;;;;2.05;0.70;;;8.80;54.10;;;;;;5055581;28;20408;-70
2022/02/25 06:09:29;;;;;;;5.85;0.82;;;8.80;53.90;;;;;;5055524;28;20100;-69
2022/02/25 06:11:55;;;;;;;2.53;0.70;;;8.80;53.80;;;;;;5054245;28;20051;-69
2022/02/25 06:14:20;;;;;;;1.42;0.85;;;8.80;53.70;;;;;;5054186;28;20032;-70
2022/02/25 06:16:46;;;;;;;2.78;0.57;;;8.80;53.70;;;;;;5055179;28;20025;-72
2022/02/25 06:19:12;;;;;;;1.30;0.68;;;8.80;53.50;;;;;;5055284;28;20029;-71
2022/02/25 06:21:38;;;;;;;1.52;0.60;;;8.80;53.60;;;;;;5055242;28;20026;-69
2022/02/25 06:24:04;;;;;;;4.25;0.80;;;8.90;53.60;;;;;;5053957;28;20133;-71
2022/02/25 06:26:30;;;;;;;2.45;0.98;;;8.90;54.00;;;;;;5055157;28;20481;-70
2022/02/25 06:28:57;;;;;;;5.13;1.00;;;8.90;53.30;;;;;;5055129;28;20063;-71
2022/02/25 06:31:23;;;;;;;6.30;0.80;;;8.90;53.10;;;;;;5054984;28;20025;-69
2022/02/25 06:33:49;;;;;;;2.83;0.80;;;8.90;52.90;;;;;;5055002;28;20044;-70
2022/02/25 06:36:16;;;;;;;2.83;0.80;;;8.90;52.80;;;;;;5054938;28;20478;-71
2022/02/25 06:38:42;;;;;;;2.80;0.80;;;8.90;52.60;;;;;;5054885;28;20025;-70
2022/02/25 06:41:36;;;;;;;1.60;0.90;;;8.90;52.60;;;;;;5053660;28;20036;-69
2022/02/25 06:44:02;;;;;;;6.47;0.95;;;8.90;52.60;;;;;;5055200;28;20103;-71
2022/02/25 06:46:28;;;;;;;1.27;0.75;;;8.90;52.50;;;;;;5054748;28;20028;-72
2022/02/25 06:48:54;;;;;;;2.05;0.90;;;8.90;52.10;;;;;;5053492;28;20470;-69
2022/02/25 06:51:21;;;;;;;4.50;0.68;;;8.90;52.30;;;;;;5054425;28;20028;-68
2022/02/25 06:53:47;;;;;;;1.88;0.60;;;8.90;52.20;;;;;;5053433;28;20025;-71
2022/02/25 06:56:13;;;;;;;1.67;0.73;;;8.90;51.90;;;;;;5054341;28;20390;-71
2022/02/25 06:58:38;;;;;;;5.90;0.85;;;8.90;51.80;;;;;;5054448;28;20025;-70
2022/02/25 07:01:06;;;;;;;3.22;0.70;;;8.90;51.80;;;;;;5054473;28;20016;-70
2022/02/25 07:03:34;;;;;;;3.00;0.82;;;9.00;51.80;;;;;;5054504;28;20070;-70
2022/02/25 07:06:00;;;;;;;0.52;0.52;;;9.00;51.50;;;;;;5054418;28;20024;-72
2022/02/25 07:08:26;;;;;;;1.27;0.70;;;9.00;51.60;;;;;;5054688;28;20351;-72
2022/02/25 07:10:52;;;;;;;1.10;0.60;;;9.00;51.40;;;;;;5054380;28;20079;-70
2022/02/25 07:13:19;;;;;;;2.22;0.65;;;9.00;51.20;;;;;;5054286;28;20020;-69
2022/02/25 07:15:45;;;;;;;2.33;0.90;;;9.00;51.20;;;;;;5054299;28;20163;-69
2022/02/25 07:18:18;;;;;;;1.77;0.85;;;9.10;51.10;;;;;;5054259;28;20036;-70
2022/02/25 07:20:44;;;;;;;2.97;0.82;;;9.00;50.90;;;;;;5054141;28;20577;-70
2022/02/25 07:23:11;;;;;;;2.22;0.90;;;9.10;51.00;;;;;;5052918;28;20101;-69
2022/02/25 07:25:38;;;;;;;6.18;0.70;;;9.10;51.20;;;;;;5053965;28;20021;-70
2022/02/25 07:28:06;;;;;;;2.35;1.08;;;9.10;51.10;;;;;;5054111;28;20097;-70
2022/02/25 07:30:32;;;;;;;1.67;0.80;;;9.20;51.00;;;;;;5054020;28;20036;-69
2022/02/25 07:32:58;;;;;;;5.45;1.00;;;9.20;50.90;;;;;;5053993;28;20021;-70
2022/02/25 07:35:24;;;;;;;2.78;0.75;;;9.20;51.40;;;;;;5054257;28;20032;-71
2022/02/25 07:37:50;;;;;;;6.18;1.48;;;9.20;50.80;;;;;;5057402;28;20028;-72
2022/02/25 07:40:16;;;;;;;0.68;0.60;;;9.30;51.00;;;;;;5063620;28;20470;-72
2022/02/25 07:42:43;;;;;;;1.88;0.80;;;9.40;51.10;;;;;;5053639;28;20047;-69
2022/02/25 07:45:10;;;;;;;1.50;0.70;;;9.50;50.90;;;;;;5053385;28;20024;-70
2022/02/25 07:47:38;;;;;;;2.50;1.02;;;9.50;50.80;;;;;;5053478;28;20383;-71
2022/02/25 07:50:05;;;;;;;1.60;0.85;;;9.70;51.10;;;;;;5053525;28;20445;-68
2022/02/25 07:52:30;;;;;;;3.10;0.80;;;9.70;50.60;;;;;;5070826;28;20029;-69
2022/02/25 07:54:56;;;;;;;3.67;1.23;;;9.80;50.50;;;;;;5069854;28;20429;-72
2022/02/25 07:57:22;;;;;;;3.50;0.65;;;9.80;50.50;;;;;;5052046;28;20045;-69
2022/02/25 07:59:48;;;;;;;1.83;0.80;;;9.80;49.80;;;;;;5053356;28;20025;-72
2022/02/25 08:02:15;;;;;;;3.03;0.90;;;9.80;50.00;;;;;;5052706;28;20288;-72
2022/02/25 08:04:41;;;;;;;5.22;1.00;;;9.80;50.00;;;;;;5053226;28;20020;-68
2022/02/25 08:07:07;;;;;;;2.63;1.05;;;9.90;49.80;;;;;;5053371;28;20025;-70
2022/02/25 08:09:33;;;;;;;2.88;1.00;;;9.90;50.20;;;;;;5053336;28;20036;-70
2022/02/25 08:11:59;;;;;;;2.20;0.82;;;9.90;50.10;;;;;;5053272;28;20036;-68
2022/02/25 08:14:29;;;;;;;0.98;0.63;;;10.00;49.90;;;;;;5053234;28;20036;-68
2022/02/25 08:16:56;;;;;;;6.15;1.08;;;10.00;50.00;;;;;;5053070;28;20526;-69
2022/02/25 08:19:22;;;;;;;7.53;1.55;;;10.10;49.30;;;;;;5053121;28;20024;-72
2022/02/25 08:21:48;;;;;;;2.38;0.70;;;10.10;48.90;;;;;;5052847;28;20017;-70
2022/02/25 08:24:14;;;;;;;4.35;1.05;;;10.10;49.00;;;;;;5052916;28;20035;-70
2022/02/25 08:26:39;;;;;;;2.38;0.70;;;10.10;48.50;;;;;;5054555;28;20020;-69
2022/02/25 08:29:05;;;;;;;3.58;1.25;;;10.10;47.80;;;;;;5073008;28;20032;-70
2022/02/25 08:31:31;;;;;;;2.95;0.90;;;10.10;47.60;;;;;;5072943;28;20446;-70
2022/02/25 08:33:57;;;;;;;3.35;1.10;;;10.10;47.70;;;;;;5071104;28;20052;-68
2022/02/25 08:36:23;;;;;;;4.60;0.95;;;10.10;48.10;;;;;;5053661;28;20482;-68
2022/02/25 08:38:49;;;;;;;2.90;1.08;;;10.00;47.80;;;;;;5052795;28;20032;-71
2022/02/25 08:41:15;;;;;;;2.72;0.90;;;10.10;47.80;;;;;;5052777;28;20028;-71
2022/02/25 08:43:42;;;;;;;4.10;0.70;;;10.10;48.10;;;;;;5052750;28;20021;-69
2022/02/25 08:46:09;;;;;;;11.70;1.30;;;10.10;47.90;;;;;;5057356;28;20017;-70
2022/02/25 08:48:35;;;;;;;3.78;1.02;;;10.20;47.50;;;;;;5059022;28;20505;-69
2022/02/25 08:51:01;;;;;;;2.92;1.00;;;10.20;47.20;;;;;;5072734;28;20029;-70
2022/02/25 08:53:27;;;;;;;3.03;1.30;;;10.20;47.20;;;;;;5060109;28;20025;-70
2022/02/25 08:55:53;;;;;;;2.38;0.80;;;10.30;47.40;;;;;;5052681;28;20044;-71
2022/02/25 08:58:20;;;;;;;4.32;1.30;;;10.30;46.00;;;;;;5052303;28;20044;-70
2022/02/25 09:00:46;;;;;;;4.57;1.13;;;10.20;44.90;;;;;;5052563;28;20028;-69
2022/02/25 09:03:12;;;;;;;3.55;1.48;;;10.20;44.80;;;;;;5051261;28;20025;-70
2022/02/25 09:05:38;;;;;;;2.55;0.98;;;10.10;44.50;;;;;;5063747;28;20021;-69
2022/02/25 09:08:04;;;;;;;2.40;0.90;;;10.10;44.10;;;;;;5072606;28;20047;-70
2022/02/25 09:10:30;;;;;;;3.08;0.90;;;10.10;43.80;;;;;;5071050;28;20474;-70
2022/02/25 09:12:56;;;;;;;4.47;0.90;;;10.00;43.40;;;;;;5072537;28;20032;-71
2022/02/25 09:15:26;;;;;;;5.53;0.98;;;9.90;42.70;;;;;;5075326;28;20436;-69
2022/02/25 09:17:57;;;;;;;5.50;0.82;;;9.80;42.80;;;;;;5077975;28;20386;-71
2022/02/25 09:20:25;;;;;;;2.33;1.00;;;9.70;43.00;;;;;;5079100;28;20020;-72
2022/02/25 09:22:51;;;;;;;5.47;1.10;;;9.60;43.20;;;;;;5062815;28;20104;-70
2022/02/25 09:25:17;;;;;;;6.70;1.30;;;9.50;43.20;;;;;;5057351;28;20100;-69
2022/02/25 09:27:44;;;;;;;6.10;1.27;;;9.50;43.10;;;;;;5060692;28;20526;-71
2022/02/25 09:30:13;;;;;;;4.82;1.40;;;9.50;43.40;;;;;;5054617;28;20371;-69
2022/02/25 09:32:39;;;;;;;5.05;1.25;;;9.40;44.00;;;;;;5055453;28;20021;-71
2022/02/25 09:35:06;;;;;;;4.50;1.33;;;9.40;43.80;;;;;;5056104;28;20082;-70
2022/02/25 09:37:35;;;;;;;1.77;0.90;;;9.40;43.80;;;;;;5067172;28;20090;-70
2022/02/25 09:40:10;;;;;;;7.93;1.20;;;9.50;43.40;;;;;;5068954;28;20027;-70
2022/02/25 09:42:37;;;;;;;2.42;1.10;;;9.50;43.70;;;;;;5076394;28;20082;-68
2022/02/25 09:45:05;;;;;;;7.38;1.08;;;9.60;43.20;;;;;;5075641;28;20059;-71
2022/02/25 09:47:35;;;;;;;4.35;1.02;;;9.60;42.50;;;;;;5072506;28;20507;-71
2022/02/25 09:50:05;;;;;;;4.43;1.00;;;9.60;42.50;;;;;;5056179;28;20087;-70
2022/02/25 09:52:34;;;;;;;1.75;0.70;;;9.70;42.90;;;;;;5065167;28;20459;-71
2022/02/25 09:55:00;;;;;;;6.35;0.88;;;9.80;43.40;;;;;;5055873;28;20068;-69
2022/02/25 09:57:26;;;;;;;12.25;1.10;;;9.80;43.20;;;;;;5066011;28;20040;-69
2022/02/25 09:59:51;;;;;;;3.42;0.80;;;10.00;42.80;;;;;;5056024;28;20474;-69
2022/02/25 10:02:17;;;;;;;4.80;1.13;;;10.00;42.40;;;;;;5055883;28;20024;-69
2022/02/25 10:04:43;;;;;;;4.55;1.38;;;10.10;42.30;;;;;;5055689;28;20490;-70
2022/02/25 10:07:26;;;;;;;2.30;1.10;;;10.20;42.60;;;;;;5055678;28;20025;-71
2022/02/25 10:09:53;;;;;;;2.37;0.80;;;10.30;42.10;;;;;;5054334;28;20108;-71
2022/02/25 10:12:19;;;;;;;2.63;1.00;;;10.50;42.60;;;;;;5054122;28;20625;-69
2022/02/25 10:14:48;;;;;;;4.75;1.23;;;10.60;41.70;;;;;;5063970;28;20025;-70
2022/02/25 10:17:16;;;;;;;5.93;1.33;;;10.80;40.90;;;;;;5075397;28;20032;-70
2022/02/25 10:19:49;;;;;;;2.88;0.70;;;10.90;41.20;;;;;;5073176;28;20029;-71
2022/02/25 10:22:37;;;;;;;4.15;1.38;;;11.00;41.80;;;;;;5055328;28;20036;-71
2022/02/25 10:25:09;;;;;;;6.40;1.08;;;11.20;41.20;;;;;;5064386;28;20493;-70
2022/02/25 10:27:40;;;;;;;4.15;1.15;;;11.30;40.20;;;;;;5075145;28;20497;-70
2022/02/25 10:30:10;;;;;;;2.45;0.93;;;11.40;40.30;;;;;;5075067;28;20028;-70
2022/02/25 10:32:40;;;;;;;6.50;1.00;;;11.40;39.50;;;;;;5074935;28;20024;-72
2022/02/25 10:35:36;;;;;;;3.45;1.15;;;11.50;39.80;;;;;;5074386;28;20115;-70
2022/02/25 10:38:11;;;;;;;2.15;0.90;;;11.60;39.70;;;;;;5074869;28;20024;-70
2022/02/25 10:40:43;;;;;;;1.88;0.88;;;11.60;39.00;;;;;;5063214;28;20025;-72
2022/02/25 10:43:23;;;;;;;5.18;1.00;;;11.60;38.90;;;;;;5058309;28;20020;-72
2022/02/25 10:45:54;;;;;;;4.57;1.23;;;11.60;38.80;;;;;;5073549;28;20032;-70
2022/02/25 10:48:28;;;;;;;4.57;1.20;;;11.60;38.20;;;;;;5071199;28;20033;-70
2022/02/25 10:50:55;;;;;;;;;;;11.50;38.10;;;;;;5055128;28;20083;-69
2022/02/25 10:53:39;;;;;;;2.85;0.95;;;11.50;39.50;;;;;;5058204;28;19908;-69
2022/02/25 10:56:14;;;;;;;2.05;0.88;;;11.50;36.40;;;;;;5074574;28;20059;-71
2022/02/25 10:58:41;;;;;;;4.38;0.80;;;11.40;35.90;;;;;;5060839;28;20417;-71
2022/02/25 11:01:08;;;;;;;1.73;0.60;;;11.30;35.50;;;;;;5054525;28;20032;-71
2022/02/25 11:03:34;;;;;;;5.30;0.90;;;11.30;35.80;;;;;;5056537;28;20045;-69
2022/02/25 11:06:00;;;;;;;1.80;0.60;;;11.20;35.40;;;;;;5054201;28;20053;-71
2022/02/25 11:08:25;;;;;;;2.92;0.70;;;11.20;33.90;;;;;;5057171;28;20063;-69
2022/02/25 11:10:53;;;;;;;6.28;0.70;;;11.10;33.90;;;;;;5074413;28;20020;-72
2022/02/25 11:13:20;;;;;;;3.88;0.63;;;11.10;34.50;;;;;;5057775;28;20388;-72
2022/02/25 11:15:46;;;;;;;3.05;1.05;;;11.10;34.00;;;;;;5054378;28;20112;-72
2022/02/25 11:18:13;;;;;;;2.95;0.73;;;11.00;34.10;;;;;;5052731;28;20082;-69
2022/02/25 11:20:43;;;;;;;2.08;0.70;;;11.00;34.60;;;;;;5054077;28;20024;-69
2022/02/25 11:23:14;;;;;;;3.20;0.60;;;10.90;34.20;;;;;;5055695;28;20021;-71
2022/02/25 11:25:42;;;;;;;4.95;1.08;;;10.90;34.70;;;;;;5069536;28;20025;-72
2022/02/25 11:28:09;;;;;;;9.02;1.00;;;10.90;34.70;;;;;;5074101;28;20021;-69
2022/02/25 11:31:06;;;;;;;2.10;0.70;;;10.90;35.50;;;;;;5058311;28;20112;-71
2022/02/25 11:33:32;;;;;;;3.08;0.80;;;10.90;35.50;;;;;;5052630;28;20025;-70
2022/02/25 11:36:08;;;;;;;1.48;0.40;;;11.00;34.90;;;;;;5055458;28;20037;-72
2022/02/25 11:38:42;;;;;;;3.20;0.85;;;11.00;35.10;;;;;;5061339;28;20083;-71
2022/02/25 11:41:14;;;;;;;;;;;11.00;35.10;;;;;;5055581;28;20028;-69
2022/02/25 11:43:48;;;;;;;2.30;0.82;;;11.10;36.30;;;;;;5053659;28;19905;-71
2022/02/25 11:46:28;;;;;;;;;;;11.10;34.60;;;;;;5067061;28;20032;-72
2022/02/25 11:48:56;;;;;;;4.13;1.23;;;11.20;36.40;;;;;;5093951;28;19900;-70
2022/02/25 11:51:35;;;;;;;5.95;1.38;;;11.30;33.90;;;;;;5092455;28;20051;-69
2022/02/25 11:54:28;;;;;;;5.10;1.08;;;11.30;33.80;;;;;;5093863;28;20047;-70
2022/02/25 11:56:58;;;;;;;2.95;0.90;;;11.50;33.90;;;;;;5092993;28;20117;-71
2022/02/25 11:59:25;;;;;;;1.48;0.65;;;11.60;33.80;;;;;;5093706;28;20107;-69
2022/02/25 12:02:13;;;;;;;6.35;0.85;;;11.60;33.40;;;;;;5093701;28;20090;-71
2022/02/25 12:04:47;;;;;;;4.45;1.02;;;11.60;32.60;;;;;;5093608;28;20028;-72
2022/02/25 12:07:15;;;;;;;4.50;0.98;;;11.50;32.50;;;;;;5093607;28;20059;-69
2022/02/25 12:09:52;;;;;;;3.15;0.70;;;11.50;33.00;;;;;;5093518;28;20059;-72
2022/02/25 12:12:23;;;;;;;3.25;0.80;;;11.50;33.40;;;;;;5093511;28;20028;-70
2022/02/25 12:15:04;;;;;;;10.85;1.23;;;11.40;33.60;;;;;;5093323;28;20489;-70
2022/02/25 12:17:51;;;;;;;11.60;1.40;;;11.30;33.60;;;;;;5093336;28;20035;-69
2022/02/25 12:20:26;;;;;;;5.97;1.40;;;11.40;34.20;;;;;;5053151;28;20020;-71
2022/02/25 12:23:00;;;;;;;3.33;1.10;;;11.30;33.80;;;;;;5051898;28;20013;-71
2022/02/25 12:25:44;;;;;;;2.92;0.70;;;11.20;33.30;;;;;;5053130;28;20013;-69
2022/02/25 12:28:28;;;;;;;4.75;1.30;;;11.20;33.20;;;;;;5052996;28;20386;-72
2022/02/25 12:31:14;;;;;;;2.20;0.70;;;11.20;32.90;;;;;;5052903;28;20041;-70
2022/02/25 12:33:43;;;;;;;1.75;0.80;;;11.30;33.60;;;;;;5052888;28;20063;-73
2022/02/25 12:36:16;;;;;;;3.47;0.95;;;11.30;32.90;;;;;;5052866;28;20082;-69
2022/02/25 12:38:50;;;;;;;6.07;0.93;;;11.30;32.80;;;;;;5052700;28;20108;-71
2022/02/25 12:41:17;;;;;;;1.52;0.60;;;11.30;33.20;;;;;;5052807;28;20429;-72
2022/02/25 12:43:48;;;;;;;6.97;0.85;;;11.40;33.20;;;;;;5052757;28;20055;-69
2022/02/25 12:46:15;;;;;;;3.22;0.98;;;11.40;33.00;;;;;;5052871;28;20021;-70
2022/02/25 12:48:41;;;;;;;3.75;1.15;;;11.50;33.00;;;;;;5051158;28;20029;-72
2022/02/25 12:51:07;;;;;;;4.15;1.52;;;11.60;33.20;;;;;;5051435;28;20501;-71
2022/02/25 12:53:56;;;;;;;4.70;0.68;;;11.70;33.00;;;;;;5052672;28;20033;-70
2022/02/25 12:56:31;;;;;;;5.55;0.60;;;11.80;32.30;;;;;;5052324;28;20139;-72
2022/02/25 12:59:01;;;;;;;3.22;1.13;;;11.80;32.10;;;;;;5052798;28;20135;-71
2022/02/25 13:01:29;;;;;;;5.03;1.20;;;11.80;31.00;;;;;;5052640;28;20483;-72
2022/02/25 13:04:06;;;;;;;5.82;1.10;;;11.80;31.30;;;;;;5052496;28;20036;-69